sensor_id;sensor_type;location;lat;lon;timestamp;P1;durP1;ratioP1;P2;durP2;ratioP2
74074;SDS011;62428;51.412;5.432;2023-07-13T00:01:26;3.87;;;0.60;;
74074;SDS011;62428;51.412;5.432;2023-07-13T00:03:51;4.65;;;0.90;;
74074;SDS011;62428;51.412;5.432;2023-07-13T00:06:17;5.13;;;0.67;;
74074;SDS011;62428;51.412;5.432;2023-07-13T00:08:44;2.95;;;0.57;;
74074;SDS011;62428;51.412;5.432;2023-07-13T00:11:10;4.17;;;0.73;;
74074;SDS011;62428;51.412;5.432;2023-07-13T00:13:35;3.05;;;0.60;;
74074;SDS011;62428;51.412;5.432;2023-07-13T00:16:03;6.17;;;0.70;;
74074;SDS011;62428;51.412;5.432;2023-07-13T00:18:28;4.25;;;0.60;;
74074;SDS011;62428;51.412;5.432;2023-07-13T00:20:55;6.53;;;0.73;;
74074;SDS011;62428;51.412;5.432;2023-07-13T00:23:22;2.55;;;0.55;;
74074;SDS011;62428;51.412;5.432;2023-07-13T00:25:48;2.43;;;0.60;;
74074;SDS011;62428;51.412;5.432;2023-07-13T00:28:15;3.70;;;0.70;;
74074;SDS011;62428;51.412;5.432;2023-07-13T00:30:41;5.10;;;1.00;;
74074;SDS011;62428;51.412;5.432;2023-07-13T00:33:06;7.07;;;0.90;;
74074;SDS011;62428;51.412;5.432;2023-07-13T00:35:32;4.13;;;0.87;;
74074;SDS011;62428;51.412;5.432;2023-07-13T00:37:58;5.22;;;1.13;;
74074;SDS011;62428;51.412;5.432;2023-07-13T00:40:23;3.50;;;1.00;;
74074;SDS011;62428;51.412;5.432;2023-07-13T00:42:51;7.32;;;0.68;;
74074;SDS011;62428;51.412;5.432;2023-07-13T00:47:43;3.23;;;0.50;;
74074;SDS011;62428;51.412;5.432;2023-07-13T00:50:10;8.53;;;0.87;;
74074;SDS011;62428;51.412;5.432;2023-07-13T00:52:40;4.70;;;0.70;;
74074;SDS011;62428;51.412;5.432;2023-07-13T00:55:09;6.05;;;0.90;;
74074;SDS011;62428;51.412;5.432;2023-07-13T00:57:37;7.93;;;0.73;;
74074;SDS011;62428;51.412;5.432;2023-07-13T01:00:05;4.20;;;0.80;;
74074;SDS011;62428;51.412;5.432;2023-07-13T01:02:35;8.48;;;0.90;;
74074;SDS011;62428;51.412;5.432;2023-07-13T01:05:08;2.95;;;0.50;;
74074;SDS011;62428;51.412;5.432;2023-07-13T01:07:35;3.25;;;0.75;;
74074;SDS011;62428;51.412;5.432;2023-07-13T01:10:02;3.20;;;0.70;;
74074;SDS011;62428;51.412;5.432;2023-07-13T01:12:27;4.75;;;0.80;;
74074;SDS011;62428;51.412;5.432;2023-07-13T01:14:59;3.90;;;0.80;;
74074;SDS011;62428;51.412;5.432;2023-07-13T01:17:26;4.38;;;0.80;;
74074;SDS011;62428;51.412;5.432;2023-07-13T01:19:53;6.00;;;0.90;;
74074;SDS011;62428;51.412;5.432;2023-07-13T01:22:19;3.65;;;0.80;;
74074;SDS011;62428;51.412;5.432;2023-07-13T01:24:50;4.65;;;0.88;;
74074;SDS011;62428;51.412;5.432;2023-07-13T01:27:17;5.43;;;1.00;;
74074;SDS011;62428;51.412;5.432;2023-07-13T01:29:46;4.00;;;0.70;;
74074;SDS011;62428;51.412;5.432;2023-07-13T01:32:16;6.15;;;1.50;;
74074;SDS011;62428;51.412;5.432;2023-07-13T01:34:48;3.80;;;1.00;;
74074;SDS011;62428;51.412;5.432;2023-07-13T01:37:14;5.73;;;0.80;;
74074;SDS011;62428;51.412;5.432;2023-07-13T01:39:39;5.85;;;0.90;;
74074;SDS011;62428;51.412;5.432;2023-07-13T01:42:05;7.43;;;0.90;;
74074;SDS011;62428;51.412;5.432;2023-07-13T01:44:31;2.83;;;0.70;;
74074;SDS011;62428;51.412;5.432;2023-07-13T01:46:56;7.77;;;0.80;;
74074;SDS011;62428;51.412;5.432;2023-07-13T01:49:22;5.97;;;0.80;;
74074;SDS011;62428;51.412;5.432;2023-07-13T01:51:47;7.27;;;0.70;;
74074;SDS011;62428;51.412;5.432;2023-07-13T01:54:13;4.63;;;0.87;;
74074;SDS011;62428;51.412;5.432;2023-07-13T01:56:38;2.20;;;0.70;;
74074;SDS011;62428;51.412;5.432;2023-07-13T01:59:04;6.03;;;1.00;;
74074;SDS011;62428;51.412;5.432;2023-07-13T02:01:30;5.67;;;1.10;;
74074;SDS011;62428;51.412;5.432;2023-07-13T02:03:55;7.23;;;1.00;;
74074;SDS011;62428;51.412;5.432;2023-07-13T02:06:21;4.78;;;0.88;;
74074;SDS011;62428;51.412;5.432;2023-07-13T02:08:46;3.13;;;0.70;;
74074;SDS011;62428;51.412;5.432;2023-07-13T02:11:12;5.40;;;0.97;;
74074;SDS011;62428;51.412;5.432;2023-07-13T02:13:37;7.90;;;1.37;;
74074;SDS011;62428;51.412;5.432;2023-07-13T02:16:03;4.53;;;0.70;;
74074;SDS011;62428;51.412;5.432;2023-07-13T02:18:28;7.93;;;0.80;;
74074;SDS011;62428;51.412;5.432;2023-07-13T02:20:54;3.80;;;0.70;;
74074;SDS011;62428;51.412;5.432;2023-07-13T02:23:19;3.80;;;1.02;;
74074;SDS011;62428;51.412;5.432;2023-07-13T02:25:45;5.10;;;1.00;;
74074;SDS011;62428;51.412;5.432;2023-07-13T02:28:11;5.97;;;0.90;;
74074;SDS011;62428;51.412;5.432;2023-07-13T02:30:36;5.05;;;0.95;;
74074;SDS011;62428;51.412;5.432;2023-07-13T02:33:03;8.10;;;1.00;;
74074;SDS011;62428;51.412;5.432;2023-07-13T02:35:29;6.57;;;1.30;;
74074;SDS011;62428;51.412;5.432;2023-07-13T02:37:54;4.35;;;0.82;;
74074;SDS011;62428;51.412;5.432;2023-07-13T02:40:19;6.37;;;0.83;;
74074;SDS011;62428;51.412;5.432;2023-07-13T02:42:45;7.03;;;0.90;;
74074;SDS011;62428;51.412;5.432;2023-07-13T02:45:10;4.93;;;0.87;;
74074;SDS011;62428;51.412;5.432;2023-07-13T02:47:39;9.10;;;1.10;;
74074;SDS011;62428;51.412;5.432;2023-07-13T02:50:06;4.43;;;1.10;;
74074;SDS011;62428;51.412;5.432;2023-07-13T02:52:32;7.22;;;0.90;;
74074;SDS011;62428;51.412;5.432;2023-07-13T02:54:57;7.23;;;1.07;;
74074;SDS011;62428;51.412;5.432;2023-07-13T02:57:23;8.27;;;0.97;;
74074;SDS011;62428;51.412;5.432;2023-07-13T02:59:48;3.00;;;0.77;;
74074;SDS011;62428;51.412;5.432;2023-07-13T03:02:14;7.32;;;1.13;;
74074;SDS011;62428;51.412;5.432;2023-07-13T03:04:40;4.15;;;1.00;;
74074;SDS011;62428;51.412;5.432;2023-07-13T03:07:06;6.67;;;1.20;;
74074;SDS011;62428;51.412;5.432;2023-07-13T03:09:33;5.50;;;1.15;;
74074;SDS011;62428;51.412;5.432;2023-07-13T03:12:00;9.52;;;1.45;;
74074;SDS011;62428;51.412;5.432;2023-07-13T03:14:26;5.73;;;1.00;;
74074;SDS011;62428;51.412;5.432;2023-07-13T03:16:52;5.93;;;1.40;;
74074;SDS011;62428;51.412;5.432;2023-07-13T03:19:17;7.33;;;1.10;;
74074;SDS011;62428;51.412;5.432;2023-07-13T03:21:44;5.57;;;1.10;;
74074;SDS011;62428;51.412;5.432;2023-07-13T03:24:09;5.90;;;1.00;;
74074;SDS011;62428;51.412;5.432;2023-07-13T03:26:35;6.83;;;0.90;;
74074;SDS011;62428;51.412;5.432;2023-07-13T03:29:00;7.47;;;1.50;;
74074;SDS011;62428;51.412;5.432;2023-07-13T03:31:28;4.30;;;1.10;;
74074;SDS011;62428;51.412;5.432;2023-07-13T03:33:55;6.50;;;1.37;;
74074;SDS011;62428;51.412;5.432;2023-07-13T03:36:24;8.77;;;1.48;;
74074;SDS011;62428;51.412;5.432;2023-07-13T03:38:53;6.38;;;1.30;;
74074;SDS011;62428;51.412;5.432;2023-07-13T03:41:20;6.32;;;1.20;;
74074;SDS011;62428;51.412;5.432;2023-07-13T03:43:47;9.60;;;1.55;;
74074;SDS011;62428;51.412;5.432;2023-07-13T03:46:13;8.03;;;1.23;;
74074;SDS011;62428;51.412;5.432;2023-07-13T03:48:38;6.87;;;1.27;;
74074;SDS011;62428;51.412;5.432;2023-07-13T03:51:06;6.07;;;1.37;;
74074;SDS011;62428;51.412;5.432;2023-07-13T03:53:31;6.25;;;1.13;;
74074;SDS011;62428;51.412;5.432;2023-07-13T03:55:56;6.20;;;1.27;;
74074;SDS011;62428;51.412;5.432;2023-07-13T04:00:55;7.95;;;1.83;;
74074;SDS011;62428;51.412;5.432;2023-07-13T04:03:22;11.10;;;1.48;;
74074;SDS011;62428;51.412;5.432;2023-07-13T04:05:48;4.15;;;1.30;;
74074;SDS011;62428;51.412;5.432;2023-07-13T04:08:14;6.70;;;1.20;;
74074;SDS011;62428;51.412;5.432;2023-07-13T04:10:40;11.35;;;1.73;;
74074;SDS011;62428;51.412;5.432;2023-07-13T04:13:05;10.40;;;1.27;;
74074;SDS011;62428;51.412;5.432;2023-07-13T04:15:31;8.03;;;1.47;;
74074;SDS011;62428;51.412;5.432;2023-07-13T04:17:57;5.30;;;1.27;;
74074;SDS011;62428;51.412;5.432;2023-07-13T04:20:26;6.47;;;2.05;;
74074;SDS011;62428;51.412;5.432;2023-07-13T04:22:52;7.82;;;1.88;;
74074;SDS011;62428;51.412;5.432;2023-07-13T04:25:18;10.55;;;1.52;;
74074;SDS011;62428;51.412;5.432;2023-07-13T04:27:44;12.13;;;2.00;;
74074;SDS011;62428;51.412;5.432;2023-07-13T04:30:09;8.52;;;2.10;;
74074;SDS011;62428;51.412;5.432;2023-07-13T04:32:35;13.93;;;2.57;;
74074;SDS011;62428;51.412;5.432;2023-07-13T04:35:00;11.17;;;2.57;;
74074;SDS011;62428;51.412;5.432;2023-07-13T04:37:26;13.03;;;2.17;;
74074;SDS011;62428;51.412;5.432;2023-07-13T04:39:52;9.67;;;2.27;;
74074;SDS011;62428;51.412;5.432;2023-07-13T04:42:18;11.85;;;2.85;;
74074;SDS011;62428;51.412;5.432;2023-07-13T04:44:47;12.13;;;2.60;;
74074;SDS011;62428;51.412;5.432;2023-07-13T04:47:16;11.32;;;2.63;;
74074;SDS011;62428;51.412;5.432;2023-07-13T04:49:42;13.93;;;2.80;;
74074;SDS011;62428;51.412;5.432;2023-07-13T04:52:08;13.77;;;3.05;;
74074;SDS011;62428;51.412;5.432;2023-07-13T04:54:34;17.20;;;2.63;;
74074;SDS011;62428;51.412;5.432;2023-07-13T04:57:00;17.42;;;3.58;;
74074;SDS011;62428;51.412;5.432;2023-07-13T04:59:26;15.33;;;3.60;;
74074;SDS011;62428;51.412;5.432;2023-07-13T05:01:51;11.20;;;3.28;;
74074;SDS011;62428;51.412;5.432;2023-07-13T05:04:17;16.47;;;3.77;;
74074;SDS011;62428;51.412;5.432;2023-07-13T05:06:42;17.57;;;3.70;;
74074;SDS011;62428;51.412;5.432;2023-07-13T05:09:07;18.37;;;3.83;;
74074;SDS011;62428;51.412;5.432;2023-07-13T05:11:33;19.67;;;3.70;;
74074;SDS011;62428;51.412;5.432;2023-07-13T05:13:59;18.03;;;4.40;;
74074;SDS011;62428;51.412;5.432;2023-07-13T05:16:26;16.77;;;4.55;;
74074;SDS011;62428;51.412;5.432;2023-07-13T05:18:52;16.92;;;4.55;;
74074;SDS011;62428;51.412;5.432;2023-07-13T05:21:18;20.67;;;4.80;;
74074;SDS011;62428;51.412;5.432;2023-07-13T05:23:44;24.80;;;4.30;;
74074;SDS011;62428;51.412;5.432;2023-07-13T05:26:10;18.25;;;4.03;;
74074;SDS011;62428;51.412;5.432;2023-07-13T05:28:36;16.13;;;4.00;;
74074;SDS011;62428;51.412;5.432;2023-07-13T05:31:02;21.33;;;4.00;;
74074;SDS011;62428;51.412;5.432;2023-07-13T05:33:28;24.08;;;4.10;;
74074;SDS011;62428;51.412;5.432;2023-07-13T05:35:54;20.88;;;3.55;;
74074;SDS011;62428;51.412;5.432;2023-07-13T05:38:19;19.13;;;3.43;;
74074;SDS011;62428;51.412;5.432;2023-07-13T05:40:45;14.33;;;3.30;;
74074;SDS011;62428;51.412;5.432;2023-07-13T05:43:11;14.40;;;3.22;;
74074;SDS011;62428;51.412;5.432;2023-07-13T05:45:38;22.08;;;4.03;;
74074;SDS011;62428;51.412;5.432;2023-07-13T05:48:03;18.73;;;3.40;;
74074;SDS011;62428;51.412;5.432;2023-07-13T05:50:29;14.70;;;3.55;;
74074;SDS011;62428;51.412;5.432;2023-07-13T05:52:54;18.37;;;3.90;;
74074;SDS011;62428;51.412;5.432;2023-07-13T05:55:21;22.00;;;4.82;;
74074;SDS011;62428;51.412;5.432;2023-07-13T05:57:47;23.57;;;3.90;;
74074;SDS011;62428;51.412;5.432;2023-07-13T06:00:12;17.37;;;3.97;;
74074;SDS011;62428;51.412;5.432;2023-07-13T06:02:38;14.95;;;4.05;;
74074;SDS011;62428;51.412;5.432;2023-07-13T06:05:04;17.80;;;4.03;;
74074;SDS011;62428;51.412;5.432;2023-07-13T06:07:30;22.95;;;4.80;;
74074;SDS011;62428;51.412;5.432;2023-07-13T06:09:55;17.60;;;4.03;;
74074;SDS011;62428;51.412;5.432;2023-07-13T06:12:20;20.30;;;4.57;;
74074;SDS011;62428;51.412;5.432;2023-07-13T06:14:46;22.23;;;4.57;;
74074;SDS011;62428;51.412;5.432;2023-07-13T06:17:12;19.97;;;4.63;;
74074;SDS011;62428;51.412;5.432;2023-07-13T06:19:37;16.58;;;4.20;;
74074;SDS011;62428;51.412;5.432;2023-07-13T06:22:03;11.87;;;4.17;;
74074;SDS011;62428;51.412;5.432;2023-07-13T06:24:29;20.65;;;4.80;;
74074;SDS011;62428;51.412;5.432;2023-07-13T06:26:54;21.53;;;4.30;;
74074;SDS011;62428;51.412;5.432;2023-07-13T06:29:19;18.60;;;4.80;;
74074;SDS011;62428;51.412;5.432;2023-07-13T06:31:45;17.07;;;4.77;;
74074;SDS011;62428;51.412;5.432;2023-07-13T06:34:10;18.73;;;4.60;;
74074;SDS011;62428;51.412;5.432;2023-07-13T06:36:36;21.07;;;5.10;;
74074;SDS011;62428;51.412;5.432;2023-07-13T06:39:03;20.73;;;4.55;;
74074;SDS011;62428;51.412;5.432;2023-07-13T06:41:28;19.70;;;4.80;;
74074;SDS011;62428;51.412;5.432;2023-07-13T06:43:55;18.80;;;4.65;;
74074;SDS011;62428;51.412;5.432;2023-07-13T06:46:21;19.83;;;4.77;;
74074;SDS011;62428;51.412;5.432;2023-07-13T06:48:47;21.67;;;4.15;;
74074;SDS011;62428;51.412;5.432;2023-07-13T06:51:13;18.53;;;4.30;;
74074;SDS011;62428;51.412;5.432;2023-07-13T06:53:39;21.98;;;4.28;;
74074;SDS011;62428;51.412;5.432;2023-07-13T06:56:04;16.37;;;4.60;;
74074;SDS011;62428;51.412;5.432;2023-07-13T06:58:30;13.52;;;4.18;;
74074;SDS011;62428;51.412;5.432;2023-07-13T07:00:56;21.10;;;4.30;;
74074;SDS011;62428;51.412;5.432;2023-07-13T07:03:21;12.97;;;4.13;;
74074;SDS011;62428;51.412;5.432;2023-07-13T07:05:46;18.00;;;4.80;;
74074;SDS011;62428;51.412;5.432;2023-07-13T07:08:12;25.90;;;4.10;;
74074;SDS011;62428;51.412;5.432;2023-07-13T07:10:37;15.73;;;3.97;;
74074;SDS011;62428;51.412;5.432;2023-07-13T07:13:03;20.13;;;4.40;;
74074;SDS011;62428;51.412;5.432;2023-07-13T07:15:29;19.65;;;4.22;;
74074;SDS011;62428;51.412;5.432;2023-07-13T07:17:55;15.18;;;4.00;;
74074;SDS011;62428;51.412;5.432;2023-07-13T07:20:20;16.17;;;3.73;;
74074;SDS011;62428;51.412;5.432;2023-07-13T07:22:46;24.33;;;4.80;;
74074;SDS011;62428;51.412;5.432;2023-07-13T07:25:12;19.45;;;4.45;;
74074;SDS011;62428;51.412;5.432;2023-07-13T07:27:37;23.10;;;5.73;;
74074;SDS011;62428;51.412;5.432;2023-07-13T07:30:03;13.20;;;3.80;;
74074;SDS011;62428;51.412;5.432;2023-07-13T07:32:29;13.25;;;3.65;;
74074;SDS011;62428;51.412;5.432;2023-07-13T07:34:56;15.15;;;3.47;;
74074;SDS011;62428;51.412;5.432;2023-07-13T07:37:22;10.98;;;3.75;;
74074;SDS011;62428;51.412;5.432;2023-07-13T07:39:48;14.97;;;3.50;;
74074;SDS011;62428;51.412;5.432;2023-07-13T07:42:13;16.83;;;3.60;;
74074;SDS011;62428;51.412;5.432;2023-07-13T07:44:39;16.47;;;3.50;;
74074;SDS011;62428;51.412;5.432;2023-07-13T07:47:06;16.48;;;3.08;;
74074;SDS011;62428;51.412;5.432;2023-07-13T07:49:31;12.32;;;3.00;;
74074;SDS011;62428;51.412;5.432;2023-07-13T07:51:57;13.23;;;2.80;;
74074;SDS011;62428;51.412;5.432;2023-07-13T07:54:22;12.03;;;2.83;;
74074;SDS011;62428;51.412;5.432;2023-07-13T07:56:48;9.93;;;2.78;;
74074;SDS011;62428;51.412;5.432;2023-07-13T07:59:13;11.70;;;2.67;;
74074;SDS011;62428;51.412;5.432;2023-07-13T08:01:39;10.87;;;2.80;;
74074;SDS011;62428;51.412;5.432;2023-07-13T08:04:04;14.75;;;2.70;;
74074;SDS011;62428;51.412;5.432;2023-07-13T08:06:31;10.17;;;2.57;;
74074;SDS011;62428;51.412;5.432;2023-07-13T08:08:58;9.75;;;2.45;;
74074;SDS011;62428;51.412;5.432;2023-07-13T08:11:24;12.63;;;3.00;;
74074;SDS011;62428;51.412;5.432;2023-07-13T08:13:49;20.60;;;2.92;;
74074;SDS011;62428;51.412;5.432;2023-07-13T08:16:15;11.73;;;3.00;;
74074;SDS011;62428;51.412;5.432;2023-07-13T08:18:41;10.48;;;2.03;;
74074;SDS011;62428;51.412;5.432;2023-07-13T08:21:07;11.17;;;2.77;;
74074;SDS011;62428;51.412;5.432;2023-07-13T08:23:33;10.32;;;2.42;;
74074;SDS011;62428;51.412;5.432;2023-07-13T08:25:59;10.90;;;2.22;;
74074;SDS011;62428;51.412;5.432;2023-07-13T08:28:26;10.07;;;2.07;;
74074;SDS011;62428;51.412;5.432;2023-07-13T08:30:52;10.35;;;2.22;;
74074;SDS011;62428;51.412;5.432;2023-07-13T08:33:18;11.47;;;2.47;;
74074;SDS011;62428;51.412;5.432;2023-07-13T08:35:45;8.47;;;2.43;;
74074;SDS011;62428;51.412;5.432;2023-07-13T08:38:12;15.05;;;2.40;;
74074;SDS011;62428;51.412;5.432;2023-07-13T08:40:37;9.98;;;2.47;;
74074;SDS011;62428;51.412;5.432;2023-07-13T08:43:04;9.13;;;1.87;;
74074;SDS011;62428;51.412;5.432;2023-07-13T08:48:14;9.80;;;2.40;;
74074;SDS011;62428;51.412;5.432;2023-07-13T08:50:51;7.20;;;2.22;;
74074;SDS011;62428;51.412;5.432;2023-07-13T08:53:24;13.30;;;2.15;;
74074;SDS011;62428;51.412;5.432;2023-07-13T08:56:01;10.95;;;2.30;;
74074;SDS011;62428;51.412;5.432;2023-07-13T08:58:27;13.30;;;2.30;;
74074;SDS011;62428;51.412;5.432;2023-07-13T09:03:52;7.78;;;2.10;;
74074;SDS011;62428;51.412;5.432;2023-07-13T09:09:22;10.88;;;2.15;;
74074;SDS011;62428;51.412;5.432;2023-07-13T09:12:01;8.82;;;1.98;;
74074;SDS011;62428;51.412;5.432;2023-07-13T09:14:43;10.07;;;2.07;;
74074;SDS011;62428;51.412;5.432;2023-07-13T09:17:17;7.00;;;2.15;;
74074;SDS011;62428;51.412;5.432;2023-07-13T09:19:46;7.80;;;1.83;;
74074;SDS011;62428;51.412;5.432;2023-07-13T09:22:17;4.95;;;1.77;;
74074;SDS011;62428;51.412;5.432;2023-07-13T09:25:00;9.70;;;1.77;;
74074;SDS011;62428;51.412;5.432;2023-07-13T09:27:39;12.10;;;1.90;;
74074;SDS011;62428;51.412;5.432;2023-07-13T09:32:40;11.57;;;2.05;;
74074;SDS011;62428;51.412;5.432;2023-07-13T09:35:12;8.63;;;1.60;;
74074;SDS011;62428;51.412;5.432;2023-07-13T09:37:39;7.93;;;1.60;;
74074;SDS011;62428;51.412;5.432;2023-07-13T09:40:11;9.83;;;2.20;;
74074;SDS011;62428;51.412;5.432;2023-07-13T09:42:51;5.63;;;1.75;;
74074;SDS011;62428;51.412;5.432;2023-07-13T09:45:26;9.80;;;2.10;;
74074;SDS011;62428;51.412;5.432;2023-07-13T09:47:58;10.38;;;1.95;;
74074;SDS011;62428;51.412;5.432;2023-07-13T09:50:28;10.93;;;1.65;;
74074;SDS011;62428;51.412;5.432;2023-07-13T09:52:54;7.23;;;1.83;;
74074;SDS011;62428;51.412;5.432;2023-07-13T09:57:49;11.67;;;2.23;;
74074;SDS011;62428;51.412;5.432;2023-07-13T10:00:23;9.63;;;1.88;;
74074;SDS011;62428;51.412;5.432;2023-07-13T10:05:28;9.32;;;1.90;;
74074;SDS011;62428;51.412;5.432;2023-07-13T10:08:03;7.82;;;1.92;;
74074;SDS011;62428;51.412;5.432;2023-07-13T10:10:28;12.23;;;1.97;;
74074;SDS011;62428;51.412;5.432;2023-07-13T10:12:54;12.93;;;1.80;;
74074;SDS011;62428;51.412;5.432;2023-07-13T10:15:20;7.93;;;1.80;;
74074;SDS011;62428;51.412;5.432;2023-07-13T10:17:53;9.65;;;2.00;;
74074;SDS011;62428;51.412;5.432;2023-07-13T10:20:21;8.23;;;1.73;;
74074;SDS011;62428;51.412;5.432;2023-07-13T10:22:59;7.97;;;1.50;;
74074;SDS011;62428;51.412;5.432;2023-07-13T10:25:30;8.63;;;2.00;;
74074;SDS011;62428;51.412;5.432;2023-07-13T10:30:35;5.90;;;1.90;;
74074;SDS011;62428;51.412;5.432;2023-07-13T10:33:10;9.53;;;1.67;;
74074;SDS011;62428;51.412;5.432;2023-07-13T10:35:38;8.65;;;1.50;;
74074;SDS011;62428;51.412;5.432;2023-07-13T10:38:07;7.70;;;1.80;;
74074;SDS011;62428;51.412;5.432;2023-07-13T10:40:37;5.60;;;1.45;;
74074;SDS011;62428;51.412;5.432;2023-07-13T10:46:05;4.77;;;1.10;;
74074;SDS011;62428;51.412;5.432;2023-07-13T10:48:33;7.93;;;1.40;;
74074;SDS011;62428;51.412;5.432;2023-07-13T10:51:02;8.35;;;1.38;;
74074;SDS011;62428;51.412;5.432;2023-07-13T10:53:32;6.40;;;1.63;;
74074;SDS011;62428;51.412;5.432;2023-07-13T11:03:36;7.60;;;1.63;;
74074;SDS011;62428;51.412;5.432;2023-07-13T11:06:17;7.32;;;1.48;;
74074;SDS011;62428;51.412;5.432;2023-07-13T11:09:03;7.57;;;1.40;;
74074;SDS011;62428;51.412;5.432;2023-07-13T11:11:44;9.83;;;1.37;;
74074;SDS011;62428;51.412;5.432;2023-07-13T11:16:56;7.28;;;1.55;;
74074;SDS011;62428;51.412;5.432;2023-07-13T11:22:09;23.27;;;2.20;;
74074;SDS011;62428;51.412;5.432;2023-07-13T11:27:35;5.38;;;1.30;;
74074;SDS011;62428;51.412;5.432;2023-07-13T11:30:17;7.68;;;1.42;;
74074;SDS011;62428;51.412;5.432;2023-07-13T11:33:11;7.40;;;1.30;;
74074;SDS011;62428;51.412;5.432;2023-07-13T11:35:53;5.83;;;1.10;;
74074;SDS011;62428;51.412;5.432;2023-07-13T11:38:27;5.53;;;1.67;;
74074;SDS011;62428;51.412;5.432;2023-07-13T11:40:58;6.20;;;1.30;;
74074;SDS011;62428;51.412;5.432;2023-07-13T11:43:28;7.78;;;1.73;;
74074;SDS011;62428;51.412;5.432;2023-07-13T11:45:54;12.93;;;1.70;;
74074;SDS011;62428;51.412;5.432;2023-07-13T11:48:27;10.30;;;1.47;;
74074;SDS011;62428;51.412;5.432;2023-07-13T11:51:04;6.43;;;1.20;;
74074;SDS011;62428;51.412;5.432;2023-07-13T11:53:37;4.70;;;1.70;;
74074;SDS011;62428;51.412;5.432;2023-07-13T11:56:05;8.32;;;1.73;;
74074;SDS011;62428;51.412;5.432;2023-07-13T11:58:31;16.65;;;1.95;;
74074;SDS011;62428;51.412;5.432;2023-07-13T12:00:59;4.03;;;1.38;;
74074;SDS011;62428;51.412;5.432;2023-07-13T12:03:29;5.35;;;1.45;;
74074;SDS011;62428;51.412;5.432;2023-07-13T12:08:31;5.13;;;1.60;;
74074;SDS011;62428;51.412;5.432;2023-07-13T12:11:04;11.70;;;1.52;;
74074;SDS011;62428;51.412;5.432;2023-07-13T12:13:35;10.55;;;1.42;;
74074;SDS011;62428;51.412;5.432;2023-07-13T12:16:07;5.90;;;1.20;;
74074;SDS011;62428;51.412;5.432;2023-07-13T12:18:37;5.93;;;1.50;;
74074;SDS011;62428;51.412;5.432;2023-07-13T12:21:03;4.85;;;1.50;;
74074;SDS011;62428;51.412;5.432;2023-07-13T12:25:57;12.63;;;1.43;;
74074;SDS011;62428;51.412;5.432;2023-07-13T12:30:59;5.80;;;1.52;;
74074;SDS011;62428;51.412;5.432;2023-07-13T12:33:30;11.05;;;1.50;;
74074;SDS011;62428;51.412;5.432;2023-07-13T12:35:57;7.45;;;1.85;;
74074;SDS011;62428;51.412;5.432;2023-07-13T12:38:27;6.50;;;1.10;;
74074;SDS011;62428;51.412;5.432;2023-07-13T12:40:52;3.70;;;1.20;;
74074;SDS011;62428;51.412;5.432;2023-07-13T12:43:22;3.65;;;1.40;;
74074;SDS011;62428;51.412;5.432;2023-07-13T12:48:25;5.55;;;1.42;;
74074;SDS011;62428;51.412;5.432;2023-07-13T12:50:51;3.43;;;1.20;;
74074;SDS011;62428;51.412;5.432;2023-07-13T12:53:20;5.75;;;1.17;;
74074;SDS011;62428;51.412;5.432;2023-07-13T12:55:54;5.32;;;1.30;;
74074;SDS011;62428;51.412;5.432;2023-07-13T13:01:04;15.85;;;1.40;;
74074;SDS011;62428;51.412;5.432;2023-07-13T13:06:23;6.40;;;1.35;;
74074;SDS011;62428;51.412;5.432;2023-07-13T13:08:54;5.32;;;1.30;;
74074;SDS011;62428;51.412;5.432;2023-07-13T13:11:23;4.78;;;1.35;;
74074;SDS011;62428;51.412;5.432;2023-07-13T13:13:51;19.75;;;2.22;;
74074;SDS011;62428;51.412;5.432;2023-07-13T13:18:47;5.60;;;1.90;;
74074;SDS011;62428;51.412;5.432;2023-07-13T13:21:13;7.30;;;2.15;;
74074;SDS011;62428;51.412;5.432;2023-07-13T13:23:38;8.73;;;2.60;;
74074;SDS011;62428;51.412;5.432;2023-07-13T13:26:07;6.03;;;2.33;;
74074;SDS011;62428;51.412;5.432;2023-07-13T13:28:35;5.65;;;1.85;;
74074;SDS011;62428;51.412;5.432;2023-07-13T13:31:00;8.70;;;2.40;;
74074;SDS011;62428;51.412;5.432;2023-07-13T13:33:26;10.32;;;2.30;;
74074;SDS011;62428;51.412;5.432;2023-07-13T13:35:51;8.80;;;2.20;;
74074;SDS011;62428;51.412;5.432;2023-07-13T13:38:18;14.17;;;2.23;;
74074;SDS011;62428;51.412;5.432;2023-07-13T13:40:48;11.23;;;2.42;;
74074;SDS011;62428;51.412;5.432;2023-07-13T13:43:24;11.83;;;1.93;;
74074;SDS011;62428;51.412;5.432;2023-07-13T13:45:55;4.25;;;1.75;;
74074;SDS011;62428;51.412;5.432;2023-07-13T13:50:58;5.07;;;1.50;;
74074;SDS011;62428;51.412;5.432;2023-07-13T13:53:25;11.70;;;1.90;;
74074;SDS011;62428;51.412;5.432;2023-07-13T13:55:52;5.68;;;1.77;;
74074;SDS011;62428;51.412;5.432;2023-07-13T13:58:21;9.35;;;1.80;;
74074;SDS011;62428;51.412;5.432;2023-07-13T14:00:47;6.97;;;1.80;;
74074;SDS011;62428;51.412;5.432;2023-07-13T14:03:22;10.03;;;1.70;;
74074;SDS011;62428;51.412;5.432;2023-07-13T14:05:48;15.20;;;2.25;;
74074;SDS011;62428;51.412;5.432;2023-07-13T14:08:15;8.73;;;2.42;;
74074;SDS011;62428;51.412;5.432;2023-07-13T14:10:44;3.85;;;1.60;;
74074;SDS011;62428;51.412;5.432;2023-07-13T14:13:19;8.38;;;1.25;;
74074;SDS011;62428;51.412;5.432;2023-07-13T14:15:48;3.70;;;1.20;;
74074;SDS011;62428;51.412;5.432;2023-07-13T14:18:14;9.45;;;1.20;;
74074;SDS011;62428;51.412;5.432;2023-07-13T14:20:46;5.03;;;1.00;;
74074;SDS011;62428;51.412;5.432;2023-07-13T14:23:14;14.17;;;1.87;;
74074;SDS011;62428;51.412;5.432;2023-07-13T14:25:40;5.45;;;1.33;;
74074;SDS011;62428;51.412;5.432;2023-07-13T14:30:44;5.75;;;1.20;;
74074;SDS011;62428;51.412;5.432;2023-07-13T14:33:11;5.78;;;0.90;;
74074;SDS011;62428;51.412;5.432;2023-07-13T14:35:36;4.53;;;1.43;;
74074;SDS011;62428;51.412;5.432;2023-07-13T14:38:03;6.15;;;1.40;;
74074;SDS011;62428;51.412;5.432;2023-07-13T14:40:30;11.80;;;1.30;;
74074;SDS011;62428;51.412;5.432;2023-07-13T14:42:57;6.03;;;1.13;;
74074;SDS011;62428;51.412;5.432;2023-07-13T14:45:23;10.60;;;1.33;;
74074;SDS011;62428;51.412;5.432;2023-07-13T14:47:49;6.20;;;1.30;;
74074;SDS011;62428;51.412;5.432;2023-07-13T14:50:16;12.53;;;1.80;;
74074;SDS011;62428;51.412;5.432;2023-07-13T14:52:44;3.55;;;0.85;;
74074;SDS011;62428;51.412;5.432;2023-07-13T14:55:11;4.95;;;1.15;;
74074;SDS011;62428;51.412;5.432;2023-07-13T14:57:38;8.23;;;1.35;;
74074;SDS011;62428;51.412;5.432;2023-07-13T15:00:04;3.93;;;0.90;;
74074;SDS011;62428;51.412;5.432;2023-07-13T15:02:40;3.83;;;0.95;;
74074;SDS011;62428;51.412;5.432;2023-07-13T15:05:14;3.40;;;0.93;;
74074;SDS011;62428;51.412;5.432;2023-07-13T15:07:41;2.67;;;0.80;;
74074;SDS011;62428;51.412;5.432;2023-07-13T15:10:17;4.07;;;0.82;;
74074;SDS011;62428;51.412;5.432;2023-07-13T15:12:47;2.00;;;0.80;;
74074;SDS011;62428;51.412;5.432;2023-07-13T15:15:13;3.07;;;1.10;;
74074;SDS011;62428;51.412;5.432;2023-07-13T15:17:43;4.07;;;1.20;;
74074;SDS011;62428;51.412;5.432;2023-07-13T15:22:45;2.33;;;0.73;;
74074;SDS011;62428;51.412;5.432;2023-07-13T15:25:13;3.15;;;1.40;;
74074;SDS011;62428;51.412;5.432;2023-07-13T15:27:41;4.67;;;1.07;;
74074;SDS011;62428;51.412;5.432;2023-07-13T15:30:07;3.13;;;1.08;;
74074;SDS011;62428;51.412;5.432;2023-07-13T15:32:32;3.53;;;1.00;;
74074;SDS011;62428;51.412;5.432;2023-07-13T15:34:58;5.82;;;1.55;;
74074;SDS011;62428;51.412;5.432;2023-07-13T15:37:23;5.13;;;1.70;;
74074;SDS011;62428;51.412;5.432;2023-07-13T15:39:49;4.87;;;1.87;;
74074;SDS011;62428;51.412;5.432;2023-07-13T15:42:19;4.43;;;1.60;;
74074;SDS011;62428;51.412;5.432;2023-07-13T15:44:46;4.55;;;1.70;;
74074;SDS011;62428;51.412;5.432;2023-07-13T15:47:12;3.60;;;1.85;;
74074;SDS011;62428;51.412;5.432;2023-07-13T15:49:39;4.30;;;1.80;;
74074;SDS011;62428;51.412;5.432;2023-07-13T15:52:10;3.97;;;1.83;;
74074;SDS011;62428;51.412;5.432;2023-07-13T15:54:46;4.38;;;1.35;;